Airfield :
LOGIN :

Register | Disclaimer

   EN    FR    IT 

 










Legend :    VFR   Marginal VFR   IFR   Intensive IFR   Very Intensive IFR
Visi :
Ceiling :
>= 8 km
>= 3000ft
5 to 8 km
1000 to 3000 ft
1500m to 5 km
500 to 1000 ft
800 to 1500m
200 to 500 ft
< 800m
< 200 ft
Symbols :   Thunderstorms  Fog  Heavy snow  Heavy precipitations  Wind > 20 kt
SIGMETs :     Misc.  Thunderstorms  Icing  Turbulence  Mountain Waves  Volcanic Ashes






- Airport Elevation : 14 ft
- IATA code : BRE


EDDW - Bremen Neuenland

CURRENT METAR :
  • 220720Z 14007KT CAVOK 04/03 Q1008 NOSIG

EXPIRED METARs :
  • 220650Z 13006KT 100V160 CAVOK 04/03 Q1007 TEMPO 4000 BR
  • 220620Z 12006KT 8000 NSC 04/03 Q1007 TEMPO 4000 BR
  • 220550Z 12005KT 080V140 CAVOK 04/03 Q1007 TEMPO 4000 BR
  • 220520Z 13005KT CAVOK 04/03 Q1007 TEMPO 4000 BR
  • 220450Z 13005KT CAVOK 04/03 Q1007 TEMPO 4000 BR

TAF TAF EDDW
Valid from the 22 at 06:00 until the 23 at 06:00 UTC


220500Z 2206/2306 13005KT CAVOK
PROB30
TEMPO 2206/2209 4000 BR BKN004
PROB30
TEMPO 2212/2216 4500 SHRA BKN040TCU
BECMG 2217/2220 11010KT
BECMG 2300/2303 BKN008
PROB30
TEMPO 2303/2306 4000 BR



MET'MAP, your aeronautical weather chart ! - Copyright ORBIFLY December 2007 - Disclaimer

ORBIFLY MET'MAP TEAM :

Programming & Development : Alexandra Zaïnal
Concept & Development : Baudouin d'Aumeries
Co-Development & Prog : Marc-Olivier Méhu
Technical & hardware support : Manuel Goepfert

Contact : metmap@orbifly.com




SOURCES & CREDITS :

   NOAA